Time;durP1;ratioP1;P1;durP2;ratioP2;P2;SDS_P1;SDS_P2;PMS_P1;PMS_P2;Temp;Humidity;BMP_temperature;BMP_pressure;BME280_temperature;BME280_humidity;BME280_pressure;Samples;Min_cycle;Max_cycle;Signal;HPM_P1;HPM_P2
2022/09/10 00:00:26;;;;;;;;;;;;;;;15.86;78.37;100294.77;1683391;84;21686;-74
2022/09/10 00:02:54;;;;;;;;;;;;;;;15.83;78.35;100301.37;1683029;85;20186;-74
2022/09/10 00:05:20;;;;;;;;;;;;;;;15.81;78.33;100289.17;1683274;85;20252;-74
2022/09/10 00:07:46;;;;;;;;;;;;;;;15.78;78.31;100286.91;1683239;85;20210;-74
2022/09/10 00:10:12;;;;;;;;;;;;;;;15.76;78.31;100289.78;1663878;85;20210;-74
2022/09/10 00:12:38;;;;;;;;;;;;;;;15.76;78.29;100286.30;1683293;84;21761;-74
2022/09/10 00:15:05;;;;;;;;;;;;;;;15.76;78.28;100286.30;1683070;83;20491;-74
2022/09/10 00:17:31;;;;;;;;;;;;;;;15.75;78.25;100290.84;1683128;83;20183;-74
2022/09/10 00:19:58;;;;;;;;;;;;;;;15.74;78.25;100295.90;1683234;84;20195;-74
2022/09/10 00:22:25;;;;;;;;;;;;;;;15.72;78.25;100294.45;1683330;84;20198;-74
2022/09/10 00:24:55;;;;;;;;;;;;;;;15.69;78.24;100294.33;1683284;85;21119;-74
2022/09/10 00:27:21;;;;;;;;;;;;;;;15.68;78.25;100297.24;1683028;84;20494;-74
2022/09/10 00:29:52;;;;;;;;;;;;;;;15.65;78.28;100287.73;1683349;85;20218;-74
2022/09/10 00:32:21;;;;;;;;;;;;;;;15.61;78.31;100291.03;1683211;85;20242;-74
2022/09/10 00:34:47;;;;;;;;;;;;;;;15.57;78.33;100287.09;1683233;84;20541;-74
2022/09/10 00:37:15;;;;;;;;;;;;;;;15.53;78.39;100287.19;1683333;85;21178;-74
2022/09/10 00:39:40;;;;;;;;;;;;;;;15.51;78.45;100290.09;1683421;85;20471;-74
2022/09/10 00:42:10;;;;;;;;;;;;;;;15.52;78.48;100293.61;1683071;85;20233;-74
2022/09/10 00:44:39;;;;;;;;;;;;;;;15.50;78.53;100300.52;1683284;85;20199;-74
2022/09/10 00:47:28;;;;;;;;;;;;;;;15.51;78.57;100292.78;1683377;83;20191;-74
2022/09/10 00:49:57;;;;;;;;;;;;;;;15.50;78.61;100295.15;1665906;85;21142;-74
2022/09/10 00:52:23;;;;;;;;;;;;;;;15.49;78.65;100305.06;1681893;84;20191;-74
2022/09/10 00:54:49;;;;;;;;;;;;;;;15.51;78.69;100302.70;1683304;85;20197;-74
2022/09/10 00:57:17;;;;;;;;;;;;;;;15.51;78.74;100303.53;1682866;85;20269;-74
2022/09/10 00:59:46;;;;;;;;;;;;;;;15.51;78.77;100295.98;1683470;84;20479;-74
2022/09/10 01:02:13;;;;;;;;;;;;;;;15.49;78.81;100297.00;1683430;84;21916;-74
2022/09/10 01:04:39;;;;;;;;;;;;;;;15.49;78.86;100297.00;1683192;84;20660;-74
2022/09/10 01:07:06;;;;;;;;;;;;;;;15.51;78.92;100304.05;1683270;84;20194;-74
2022/09/10 01:09:32;;;;;;;;;;;;;;;15.51;78.96;100304.87;1683362;83;20187;-74
2022/09/10 01:12:26;;;;;;;;;;;;;;;15.53;78.98;100301.97;1674220;84;20211;-74
2022/09/10 01:15:14;;;;;;;;;;;;;;;15.54;79.01;100302.29;1682585;84;22036;-74
2022/09/10 01:17:59;;;;;;;;;;;;;;;15.54;79.09;100300.94;1684068;85;20195;-74
2022/09/10 01:20:28;;;;;;;;;;;;;;;15.57;79.10;100301.36;1683044;85;20231;-74
2022/09/10 01:23:22;;;;;;;;;;;;;;;15.60;79.13;100302.80;1672179;85;20186;-74
2022/09/10 01:26:10;;;;;;;;;;;;;;;15.61;79.18;100299.09;1642397;85;20326;-74
2022/09/10 01:28:50;;;;;;;;;;;;;;;15.63;79.22;100294.33;1683039;84;21042;-74
2022/09/10 01:31:24;;;;;;;;;;;;;;;15.63;79.26;100294.33;1682821;85;37496;-74
2022/09/10 01:34:01;;;;;;;;;;;;;;;15.64;79.32;100294.64;1682937;85;20226;-74
2022/09/10 01:36:28;;;;;;;;;;;;;;;15.66;79.35;100288.53;1682863;84;20610;-74
2022/09/10 01:38:54;;;;;;;;;;;;;;;15.67;79.38;100284.82;1683233;85;20190;-74
2022/09/10 01:41:22;;;;;;;;;;;;;;;15.67;79.43;100280.79;1683088;84;21817;-74
2022/09/10 01:43:48;;;;;;;;;;;;;;;15.67;79.47;100278.09;1683191;84;20183;-74
2022/09/10 01:46:20;;;;;;;;;;;;;;;15.68;79.52;100275.73;1683212;85;20332;-74
2022/09/10 01:48:50;;;;;;;;;;;;;;;15.68;79.58;100276.56;1683227;85;20235;-74
2022/09/10 01:51:26;;;;;;;;;;;;;;;15.67;79.63;100274.90;1683187;85;20231;-74
2022/09/10 01:54:15;;;;;;;;;;;;;;;15.67;79.65;100270.03;1683390;84;21045;-74
2022/09/10 01:56:59;;;;;;;;;;;;;;;15.67;79.70;100268.69;1683307;84;20189;-75
2022/09/10 01:59:33;;;;;;;;;;;;;;;15.66;79.75;100256.27;1677432;84;20194;-74
2022/09/10 02:02:08;;;;;;;;;;;;;;;15.67;79.79;100255.25;1683274;84;20223;-74
2022/09/10 02:04:35;;;;;;;;;;;;;;;15.65;79.82;100247.92;1683360;84;20194;-74
2022/09/10 02:07:02;;;;;;;;;;;;;;;15.63;79.88;100251.31;1683188;85;21210;-74
2022/09/10 02:09:28;;;;;;;;;;;;;;;15.61;79.90;100251.53;1683406;84;20191;-74
2022/09/10 02:11:55;;;;;;;;;;;;;;;15.62;79.97;100247.79;1683116;84;20765;-74
2022/09/10 02:14:20;;;;;;;;;;;;;;;15.59;79.97;100250.06;1683346;85;20487;-74
2022/09/10 02:16:53;;;;;;;;;;;;;;;15.59;80.02;100242.00;1683157;85;20182;-74
2022/09/10 02:19:19;;;;;;;;;;;;;;;15.56;80.06;100245.11;1683331;83;21211;-74
2022/09/10 02:21:45;;;;;;;;;;;;;;;15.54;80.12;100239.12;1683033;85;20806;-74
2022/09/10 02:24:11;;;;;;;;;;;;;;;15.53;80.16;100243.66;1683288;85;20320;-74
2022/09/10 02:26:39;;;;;;;;;;;;;;;15.51;80.21;100242.22;1683322;85;20171;-74
2022/09/10 02:29:05;;;;;;;;;;;;;;;15.47;80.24;100238.58;1683208;83;20186;-74
2022/09/10 02:31:31;;;;;;;;;;;;;;;15.46;80.29;100233.39;1683493;85;21142;-74
2022/09/10 02:33:57;;;;;;;;;;;;;;;15.45;80.34;100234.41;1677046;85;20248;-74
2022/09/10 02:36:24;;;;;;;;;;;;;;;15.44;80.38;100234.95;1680407;85;20212;-74
2022/09/10 02:38:51;;;;;;;;;;;;;;;15.44;80.42;100232.27;1681963;85;20195;-74
2022/09/10 02:41:17;;;;;;;;;;;;;;;15.44;80.46;100236.30;1682018;85;20170;-74
2022/09/10 02:43:45;;;;;;;;;;;;;;;15.43;80.49;100235.98;1680283;85;21093;-74
2022/09/10 02:46:11;;;;;;;;;;;;;;;15.44;80.54;100243.02;1681328;84;20215;-74
2022/09/10 02:48:38;;;;;;;;;;;;;;;15.46;80.59;100240.94;1682146;84;20150;-74
2022/09/10 02:51:04;;;;;;;;;;;;;;;15.47;80.63;100239.09;1677924;85;20235;-74
2022/09/10 02:53:30;;;;;;;;;;;;;;;15.49;80.63;100236.53;1681720;84;20207;-74
2022/09/10 02:55:56;;;;;;;;;;;;;;;15.50;80.66;100240.05;1682448;85;21754;-74
2022/09/10 02:58:22;;;;;;;;;;;;;;;15.53;80.69;100234.77;1682546;85;20213;-74
2022/09/10 03:00:48;;;;;;;;;;;;;;;15.54;80.72;100244.50;1682563;85;20237;-74
2022/09/10 03:03:16;;;;;;;;;;;;;;;15.54;80.72;100235.09;1682010;84;20166;-74
2022/09/10 03:05:42;;;;;;;;;;;;;;;15.56;80.77;100235.70;1682759;85;20539;-74
2022/09/10 03:08:08;;;;;;;;;;;;;;;15.56;80.77;100238.38;1682738;83;21057;-75
2022/09/10 03:10:34;;;;;;;;;;;;;;;15.57;80.78;100236.02;1662502;85;20355;-74
2022/09/10 03:13:00;;;;;;;;;;;;;;;15.57;80.81;100237.36;1681316;85;20217;-75
2022/09/10 03:15:26;;;;;;;;;;;;;;;15.57;80.84;100230.64;1681743;85;20232;-75
2022/09/10 03:17:51;;;;;;;;;;;;;;;15.55;80.84;100235.41;1682721;84;20261;-75
2022/09/10 03:20:17;;;;;;;;;;;;;;;15.53;80.87;100251.73;1682336;85;21211;-75
2022/09/10 03:22:44;;;;;;;;;;;;;;;15.52;80.88;100266.73;1681551;84;20340;-75
2022/09/10 03:25:10;;;;;;;;;;;;;;;15.48;80.93;100276.52;1673784;85;20498;-75
2022/09/10 03:27:37;;;;;;;;;;;;;;;15.47;80.95;100273.52;1682235;85;20187;-74
2022/09/10 03:30:03;;;;;;;;;;;;;;;15.47;81.02;100278.06;1682269;85;20535;-75
2022/09/10 03:32:30;;;;;;;;;;;;;;;15.45;81.06;100282.28;1679994;85;21142;-74
2022/09/10 03:34:58;;;;;;;;;;;;;;;15.44;81.12;100276.62;1680932;84;20191;-74
2022/09/10 03:37:24;;;;;;;;;;;;;;;15.44;81.17;100275.27;1682290;85;20514;-74
2022/09/10 03:39:49;;;;;;;;;;;;;;;15.44;81.23;100267.21;1682079;85;20194;-74
2022/09/10 03:42:15;;;;;;;;;;;;;;;15.43;81.26;100267.40;1682248;85;20198;-74
2022/09/10 03:44:42;;;;;;;;;;;;;;;15.43;81.34;100270.92;1680782;85;21088;-74
2022/09/10 03:47:07;;;;;;;;;;;;;;;15.43;81.37;100273.61;1678718;84;20250;-74
2022/09/10 03:49:33;;;;;;;;;;;;;;;15.44;81.43;100269.90;1678926;85;20209;-74
2022/09/10 03:51:59;;;;;;;;;;;;;;;15.45;81.48;100277.42;1681705;85;20562;-74
2022/09/10 03:54:25;;;;;;;;;;;;;;;15.45;81.52;100280.94;1681759;84;20257;-74
2022/09/10 03:56:52;;;;;;;;;;;;;;;15.47;81.56;100278.89;1682696;85;21146;-74
2022/09/10 03:59:18;;;;;;;;;;;;;;;15.49;81.60;100278.70;1682972;85;20206;-74
2022/09/10 04:01:44;;;;;;;;;;;;;;;15.48;81.62;100281.06;1683350;84;20194;-74
2022/09/10 04:04:10;;;;;;;;;;;;;;;15.47;81.64;100281.58;1683321;85;20747;-74
2022/09/10 04:06:36;;;;;;;;;;;;;;;15.45;81.67;100280.94;1683371;84;20253;-74
2022/09/10 04:09:02;;;;;;;;;;;;;;;15.42;81.72;100284.04;1673593;85;21080;-74
2022/09/10 04:11:28;;;;;;;;;;;;;;;15.39;81.78;100284.96;1680437;83;20191;-74
2022/09/10 04:13:55;;;;;;;;;;;;;;;15.37;81.81;100290.56;1683319;84;20268;-74
2022/09/10 04:16:22;;;;;;;;;;;;;;;15.35;81.85;100295.80;1677274;83;20790;-74
2022/09/10 04:18:48;;;;;;;;;;;;;;;15.32;81.91;100295.70;1675396;85;20507;-75
2022/09/10 04:21:14;;;;;;;;;;;;;;;15.31;81.97;100290.00;1675524;85;21891;-74
2022/09/10 04:23:40;;;;;;;;;;;;;;;15.30;82.01;100300.46;1675643;85;20261;-74
2022/09/10 04:26:17;;;;;;;;;;;;;;;15.29;82.05;100292.08;1675724;85;20538;-74
2022/09/10 04:28:43;;;;;;;;;;;;;;;15.29;82.10;100292.59;1675657;85;20856;-74
2022/09/10 04:31:09;;;;;;;;;;;;;;;15.25;82.15;100286.80;1675649;85;20506;-74
2022/09/10 04:33:35;;;;;;;;;;;;;;;15.24;82.22;100287.81;1675381;85;21165;-74
2022/09/10 04:36:02;;;;;;;;;;;;;;;15.24;82.27;100287.81;1675490;85;20192;-74
2022/09/10 04:38:31;;;;;;;;;;;;;;;15.23;82.29;100288.87;1675698;84;20219;-74
2022/09/10 04:40:59;;;;;;;;;;;;;;;15.23;82.32;100290.72;1675833;85;20191;-74
2022/09/10 04:43:25;;;;;;;;;;;;;;;15.22;82.37;100291.23;1674953;84;20202;-74
2022/09/10 04:45:55;;;;;;;;;;;;;;;15.20;82.41;100282.53;1659415;85;21759;-74
2022/09/10 04:48:21;;;;;;;;;;;;;;;15.18;82.42;100281.92;1663651;85;20187;-74
2022/09/10 04:50:48;;;;;;;;;;;;;;;15.18;82.45;100277.89;1668915;85;20195;-74
2022/09/10 04:53:14;;;;;;;;;;;;;;;15.14;82.46;100275.29;1675252;84;20208;-74
2022/09/10 04:55:41;;;;;;;;;;;;;;;15.15;82.50;100272.92;1675874;85;20178;-75
2022/09/10 04:58:08;;;;;;;;;;;;;;;15.14;82.52;100275.29;1677888;85;21086;-75
2022/09/10 05:00:34;;;;;;;;;;;;;;;15.13;82.56;100273.63;1676945;84;20458;-75
2022/09/10 05:03:00;;;;;;;;;;;;;;;15.13;82.58;100273.63;1677890;85;20180;-75
2022/09/10 05:05:27;;;;;;;;;;;;;;;15.13;82.59;100273.63;1675774;84;20194;-70
2022/09/10 05:07:53;;;;;;;;;;;;;;;15.13;82.61;100277.66;1677736;85;20166;-73
2022/09/10 05:10:20;;;;;;;;;;;;;;;15.13;82.64;100276.31;1674015;85;21050;-74
2022/09/10 05:12:46;;;;;;;;;;;;;;;15.17;82.67;100282.94;1674290;85;20211;-74
2022/09/10 05:15:13;;;;;;;;;;;;;;;15.19;82.68;100282.75;1675397;84;20491;-74
2022/09/10 05:17:39;;;;;;;;;;;;;;;15.20;82.66;100279.84;1675457;85;20202;-74
2022/09/10 05:20:06;;;;;;;;;;;;;;;15.21;82.68;100279.33;1673131;84;20176;-74
2022/09/10 05:22:34;;;;;;;;;;;;;;;15.26;82.70;100279.56;1673222;84;21339;-74
2022/09/10 05:25:01;;;;;;;;;;;;;;;15.28;82.70;100274.80;1670038;85;20519;-74
2022/09/10 05:27:26;;;;;;;;;;;;;;;15.33;82.70;100265.12;1675908;84;20537;-74
2022/09/10 05:29:52;;;;;;;;;;;;;;;15.37;82.67;100263.69;1675379;85;20774;-74
2022/09/10 05:32:18;;;;;;;;;;;;;;;15.42;82.66;100256.33;1675789;84;20321;-74
2022/09/10 05:34:47;;;;;;;;;;;;;;;15.46;82.62;100246.83;1670885;84;20729;-74
2022/09/10 05:37:12;;;;;;;;;;;;;;;15.49;82.57;100251.31;1675534;85;20182;-74
2022/09/10 05:39:38;;;;;;;;;;;;;;;15.55;82.52;100258.26;1675989;85;20285;-74
2022/09/10 05:42:04;;;;;;;;;;;;;;;15.58;82.51;100256.50;1675395;84;20737;-74
2022/09/10 05:44:30;;;;;;;;;;;;;;;15.63;82.46;100249.97;1674830;85;20206;-70
2022/09/10 05:46:56;;;;;;;;;;;;;;;15.69;82.41;100251.86;1674938;85;20817;-70
2022/09/10 05:49:22;;;;;;;;;;;;;;;15.68;82.33;100256.40;1675608;85;20268;-70
2022/09/10 05:51:48;;;;;;;;;;;;;;;15.69;82.27;100259.92;1674040;84;20210;-75
2022/09/10 05:54:15;;;;;;;;;;;;;;;15.74;82.22;100261.45;1675650;85;20188;-70
2022/09/10 05:56:40;;;;;;;;;;;;;;;15.79;82.18;100256.30;1672764;85;20184;-71
2022/09/10 05:59:07;;;;;;;;;;;;;;;15.82;82.09;100255.88;1674449;84;21202;-70
2022/09/10 06:01:33;;;;;;;;;;;;;;;15.81;82.03;100251.53;1674315;84;20190;-70
2022/09/10 06:03:59;;;;;;;;;;;;;;;15.81;81.95;100247.49;1675359;84;20197;-70
2022/09/10 06:06:27;;;;;;;;;;;;;;;15.80;81.88;100252.55;1674880;85;20716;-70
2022/09/10 06:08:53;;;;;;;;;;;;;;;15.80;81.83;100252.55;1612928;88;20206;-70
2022/09/10 06:11:19;;;;;;;;;;;;;;;15.83;81.77;100257.55;1617778;88;21046;-71
2022/09/10 06:13:45;;;;;;;;;;;;;;;15.85;81.73;100255.46;1628991;86;20276;-71
2022/09/10 06:16:11;;;;;;;;;;;;;;;15.94;81.71;100251.52;1649852;83;20321;-71
2022/09/10 06:18:37;;;;;;;;;;;;;;;15.98;81.63;100248.72;1674979;84;20192;-70
2022/09/10 06:21:08;;;;;;;;;;;;;;;16.00;81.58;100245.32;1675347;85;20219;-71
2022/09/10 06:23:35;;;;;;;;;;;;;;;16.03;81.54;100247.59;1638988;85;21130;-71
2022/09/10 06:26:03;;;;;;;;;;;;;;;16.05;81.49;100254.92;1674706;84;20531;-75
2022/09/10 06:28:30;;;;;;;;;;;;;;;16.08;81.47;100249.66;1675265;85;20187;-75
2022/09/10 06:30:57;;;;;;;;;;;;;;;16.09;81.40;100248.61;1674557;85;20198;-75
2022/09/10 06:33:22;;;;;;;;;;;;;;;16.11;81.35;100247.37;1674975;84;20216;-75
2022/09/10 06:35:55;;;;;;;;;;;;;;;16.14;81.36;100248.30;1674822;85;21086;-75
2022/09/10 06:38:22;;;;;;;;;;;;;;;16.16;81.27;100251.59;1675028;85;20203;-75
2022/09/10 06:40:54;;;;;;;;;;;;;;;16.11;81.17;100250.07;1675091;85;20220;-75
2022/09/10 06:43:22;;;;;;;;;;;;;;;16.11;81.18;100242.52;1675218;85;20182;-76
2022/09/10 06:45:51;;;;;;;;;;;;;;;16.12;81.13;100249.02;1674190;85;20185;-74
2022/09/10 06:48:21;;;;;;;;;;;;;;;16.14;81.11;100246.95;1678121;84;21164;-74
2022/09/10 06:50:51;;;;;;;;;;;;;;;16.16;81.03;100245.38;1670531;84;20164;-75
2022/09/10 06:53:20;;;;;;;;;;;;;;;16.14;80.97;100244.78;1675323;85;20191;-75
2022/09/10 06:55:47;;;;;;;;;;;;;;;16.16;80.96;100242.18;1665324;85;20497;-75
2022/09/10 06:58:13;;;;;;;;;;;;;;;16.22;80.92;100252.09;1664060;84;20697;-75
2022/09/10 07:00:39;;;;;;;;;;;;;;;16.21;80.86;100248.28;1664106;85;21067;-75
2022/09/10 07:03:05;;;;;;;;;;;;;;;16.19;80.80;100248.48;1675348;85;20190;-75
2022/09/10 07:05:32;;;;;;;;;;;;;;;16.24;80.83;100250.04;1672122;85;20243;-75
2022/09/10 07:07:58;;;;;;;;;;;;;;;16.29;80.78;100246.73;1668412;85;20211;-74
2022/09/10 07:10:24;;;;;;;;;;;;;;;16.38;80.73;100250.31;1675149;85;20862;-73
2022/09/10 07:12:49;;;;;;;;;;;;;;;16.49;80.67;100251.02;1675233;84;22406;-74
2022/09/10 07:15:15;;;;;;;;;;;;;;;16.57;80.60;100258.58;1674183;85;20205;-75
2022/09/10 07:17:41;;;;;;;;;;;;;;;16.65;80.56;100256.98;1689110;83;20195;-75
2022/09/10 07:20:07;;;;;;;;;;;;;;;16.68;80.48;100259.24;1689642;83;20231;-75
2022/09/10 07:22:33;;;;;;;;;;;;;;;16.68;80.48;100259.24;1691089;83;20192;-75
2022/09/10 07:24:59;;;;;;;;;;;;;;;16.76;80.42;100264.40;1686736;83;21040;-75
2022/09/10 07:27:25;;;;;;;;;;;;;;;16.75;80.35;100265.44;1689145;83;20193;-76
2022/09/10 07:29:51;;;;;;;;;;;;;;;16.71;80.23;100261.54;1684402;83;20225;-75
2022/09/10 07:32:17;;;;;;;;;;;;;;;16.64;80.20;100264.77;1689877;83;20373;-75
2022/09/10 07:34:45;;;;;;;;;;;;;;;16.67;80.16;100260.30;1688005;83;20489;-75
2022/09/10 07:37:14;;;;;;;;;;;;;;;16.66;80.10;100266.72;1690403;83;21893;-75
2022/09/10 07:39:39;;;;;;;;;;;;;;;16.72;80.08;100268.55;1692275;83;20178;-75
2022/09/10 07:42:05;;;;;;;;;;;;;;;16.74;80.00;100273.23;1691109;83;20206;-75
2022/09/10 07:44:31;;;;;;;;;;;;;;;16.75;79.97;100270.82;1692200;83;20218;-75
2022/09/10 07:46:58;;;;;;;;;;;;;;;16.64;79.83;100273.66;1687520;83;20197;-75
2022/09/10 07:49:25;;;;;;;;;;;;;;;16.62;79.82;100273.56;1689668;83;21076;-75
2022/09/10 07:51:53;;;;;;;;;;;;;;;16.69;79.86;100273.02;1690056;83;20218;-75
2022/09/10 07:54:19;;;;;;;;;;;;;;;16.78;79.81;100273.11;1689378;83;20515;-74
2022/09/10 07:56:45;;;;;;;;;;;;;;;16.76;79.74;100275.17;1693055;83;20482;-75
2022/09/10 07:59:10;;;;;;;;;;;;;;;16.86;79.74;100272.85;1693051;83;20174;-75
2022/09/10 08:01:36;;;;;;;;;;;;;;;16.92;79.75;100269.33;1663207;83;21113;-75
2022/09/10 08:04:02;;;;;;;;;;;;;;;16.87;79.66;100278.55;1682004;83;20205;-77
2022/09/10 08:06:28;;;;;;;;;;;;;;;16.88;79.62;100284.25;1677775;83;20869;-77
2022/09/10 08:08:54;;;;;;;;;;;;;;;16.89;79.65;100272.42;1679617;83;20564;-77
2022/09/10 08:11:20;;;;;;;;;;;;;;;16.86;79.62;100278.23;1684011;85;20281;-77
2022/09/10 08:13:47;;;;;;;;;;;;;;;16.87;79.61;100285.29;1688434;85;21156;-77
2022/09/10 08:16:17;;;;;;;;;;;;;;;16.91;79.58;100278.44;1684981;83;20179;-77
2022/09/10 08:18:44;;;;;;;;;;;;;;;16.83;79.50;100280.02;1674612;84;20182;-77
2022/09/10 08:21:10;;;;;;;;;;;;;;;16.82;79.50;100279.70;1677652;85;20168;-77
2022/09/10 08:23:36;;;;;;;;;;;;;;;16.83;79.51;100285.41;1678177;85;20169;-77
2022/09/10 08:26:04;;;;;;;;;;;;;;;16.83;79.49;100287.58;1674172;84;21157;-77
2022/09/10 08:28:30;;;;;;;;;;;;;;;16.84;79.45;100289.24;1674519;85;20203;-77
2022/09/10 08:31:03;;;;;;;;;;;;;;;16.85;79.45;100287.38;1674616;84;20281;-77
2022/09/10 08:33:30;;;;;;;;;;;;;;;16.83;79.37;100284.05;1658760;85;20213;-77
2022/09/10 08:35:57;;;;;;;;;;;;;;;16.81;79.37;100285.63;1676187;85;20789;-77
2022/09/10 08:38:30;;;;;;;;;;;;;;;16.83;79.39;100284.05;1677467;85;21058;-77
2022/09/10 08:40:58;;;;;;;;;;;;;;;16.90;79.38;100281.65;1672893;85;20209;-77
2022/09/10 08:43:27;;;;;;;;;;;;;;;17.05;79.36;100282.73;1675040;85;20479;-77
2022/09/10 08:45:53;;;;;;;;;;;;;;;17.12;79.37;100280.83;1667656;84;20815;-77
2022/09/10 08:48:20;;;;;;;;;;;;;;;17.26;79.28;100275.67;1674171;85;20770;-77
2022/09/10 08:50:58;;;;;;;;;;;;;;;17.33;79.28;100277.80;1675914;85;21876;-77
2022/09/10 08:53:26;;;;;;;;;;;;;;;17.49;79.25;100278.63;1674629;85;20223;-77
2022/09/10 08:55:55;;;;;;;;;;;;;;;17.60;79.12;100276.30;1674594;84;20168;-69
2022/09/10 08:58:33;;;;;;;;;;;;;;;17.58;79.05;100274.36;1670001;85;20191;-73
2022/09/10 09:01:01;;;;;;;;;;;;;;;17.67;78.96;100282.47;1669174;85;20187;-69
2022/09/10 09:03:36;;;;;;;;;;;;;;;17.71;78.90;100277.78;1669517;84;21167;-72
2022/09/10 09:06:04;;;;;;;;;;;;;;;17.74;78.84;100275.98;1673143;84;20191;-72
2022/09/10 09:08:40;;;;;;;;;;;;;;;17.81;78.84;100282.67;1675722;85;20206;-72
2022/09/10 09:11:26;;;;;;;;;;;;;;;17.85;78.76;100284.72;1676103;84;20550;-72
2022/09/10 09:14:18;;;;;;;;;;;;;;;17.87;78.64;100274.52;1674265;84;20243;-73
2022/09/10 09:17:04;;;;;;;;;;;;;;;17.82;78.64;100278.42;1648801;85;21130;-73
2022/09/10 09:19:37;;;;;;;;;;;;;;;17.96;78.64;100277.78;1676892;84;20489;-73
2022/09/10 09:22:09;;;;;;;;;;;;;;;18.12;78.56;100279.11;1680010;83;20175;-73
2022/09/10 09:24:56;;;;;;;;;;;;;;;18.19;78.44;100283.38;1662433;85;20223;-73
2022/09/10 09:27:23;;;;;;;;;;;;;;;18.27;78.30;100277.70;1685619;83;20149;-76
2022/09/10 09:29:55;;;;;;;;;;;;;;;18.26;78.23;100278.73;1687404;83;21070;-78
2022/09/10 09:32:21;;;;;;;;;;;;;;;18.29;78.09;100278.31;1685994;85;20154;-77
2022/09/10 09:34:49;;;;;;;;;;;;;;;18.38;77.95;100281.02;1688239;84;20205;-77
2022/09/10 09:37:21;;;;;;;;;;;;;;;18.50;77.87;100277.58;1688361;85;20217;-77
2022/09/10 09:40:12;;;;;;;;;;;;;;;18.45;77.72;100281.77;1688290;85;20222;-77
2022/09/10 09:42:47;;;;;;;;;;;;;;;18.51;77.65;100279.27;1685330;85;21851;-77
2022/09/10 09:45:17;;;;;;;;;;;;;;;18.66;77.58;100279.70;1688128;85;20218;-77
2022/09/10 09:47:46;;;;;;;;;;;;;;;18.65;77.40;100279.39;1687762;85;20209;-77
2022/09/10 09:50:12;;;;;;;;;;;;;;;18.63;77.27;100284.20;1688954;83;20186;-77
2022/09/10 09:52:38;;;;;;;;;;;;;;;18.62;77.18;100272.57;1662659;85;20332;-77
2022/09/10 09:55:06;;;;;;;;;;;;;;;18.65;77.07;100277.52;1665097;85;21765;-77
2022/09/10 09:57:32;;;;;;;;;;;;;;;18.68;76.97;100273.02;1687962;85;20215;-77
2022/09/10 09:59:59;;;;;;;;;;;;;;;18.72;76.90;100272.87;1688599;84;20232;-77
2022/09/10 10:02:25;;;;;;;;;;;;;;;18.71;76.83;100270.41;1662853;85;20194;-77
2022/09/10 10:05:08;;;;;;;;;;;;;;;18.70;76.77;100272.80;1651485;85;20408;-77
2022/09/10 10:07:35;;;;;;;;;;;;;;;18.76;76.61;100270.54;1687275;83;21249;-77
2022/09/10 10:10:04;;;;;;;;;;;;;;;18.85;76.50;100270.03;1688445;83;20210;-77
2022/09/10 10:12:30;;;;;;;;;;;;;;;18.91;76.39;100268.28;1688531;83;20515;-77
2022/09/10 10:14:57;;;;;;;;;;;;;;;18.92;76.27;100267.23;1684907;85;20250;-76
2022/09/10 10:17:31;;;;;;;;;;;;;;;18.93;76.21;100259.41;1685378;83;20243;-77
2022/09/10 10:20:12;;;;;;;;;;;;;;;18.91;76.13;100261.53;1678253;83;21953;-77
2022/09/10 10:22:40;;;;;;;;;;;;;;;18.88;76.03;100261.46;1672829;85;20230;-77
2022/09/10 10:25:29;;;;;;;;;;;;;;;18.94;76.03;100262.42;1689946;83;20552;-77
2022/09/10 10:27:55;;;;;;;;;;;;;;;19.00;75.96;100265.55;1693507;83;20612;-77
2022/09/10 10:30:22;;;;;;;;;;;;;;;19.03;75.90;100263.77;1702527;82;20239;-77
2022/09/10 10:32:58;;;;;;;;;;;;;;;19.13;75.83;100262.70;1696318;83;21140;-77
2022/09/10 10:35:33;;;;;;;;;;;;;;;19.25;75.78;100255.44;1696482;83;20215;-77
2022/09/10 10:38:18;;;;;;;;;;;;;;;19.37;75.70;100262.25;1683306;83;20461;-77
2022/09/10 10:41:06;;;;;;;;;;;;;;;19.44;75.54;100263.00;1674826;85;20695;-76
2022/09/10 10:43:54;;;;;;;;;;;;;;;19.64;75.47;100261.34;1682076;83;20194;-76
2022/09/10 10:46:21;;;;;;;;;;;;;;;19.78;75.35;100259.55;1688000;85;21197;-78
2022/09/10 10:49:10;;;;;;;;;;;;;;;19.99;75.20;100253.26;1688269;83;20234;-77
2022/09/10 10:52:10;;;;;;;;;;;;;;;20.17;75.11;100259.39;1684399;84;20465;-77
2022/09/10 10:55:14;;;;;;;;;;;;;;;20.13;74.77;100251.44;1686587;83;20880;-77
2022/09/10 10:57:49;;;;;;;;;;;;;;;20.33;74.84;100252.48;1683745;85;20197;-77
2022/09/10 11:00:16;;;;;;;;;;;;;;;20.59;74.63;100255.19;1687454;85;21499;-77
2022/09/10 11:03:01;;;;;;;;;;;;;;;20.63;74.44;100251.78;1686599;84;20672;-78
2022/09/10 11:05:42;;;;;;;;;;;;;;;20.60;74.04;100250.08;1687334;85;20206;-77
2022/09/10 11:08:19;;;;;;;;;;;;;;;20.45;73.73;100251.92;1687302;83;20358;-77
2022/09/10 11:10:49;;;;;;;;;;;;;;;20.42;73.56;100246.45;1669998;85;20443;-77
2022/09/10 11:13:26;;;;;;;;;;;;;;;20.52;73.40;100247.73;1679063;83;22581;-77
2022/09/10 11:16:01;;;;;;;;;;;;;;;20.71;73.34;100249.23;1662439;85;20528;-77
2022/09/10 11:18:35;;;;;;;;;;;;;;;20.88;73.04;100250.13;1662964;84;20236;-77
2022/09/10 11:21:26;;;;;;;;;;;;;;;20.87;72.78;100252.53;1665161;85;20455;-77
2022/09/10 11:23:58;;;;;;;;;;;;;;;21.03;72.61;100245.01;1665702;85;20210;-77
2022/09/10 11:26:31;;;;;;;;;;;;;;;21.26;72.40;100240.86;1676298;85;22433;-78
2022/09/10 11:29:21;;;;;;;;;;;;;;;21.55;72.21;100232.14;1683750;85;20793;-77
2022/09/10 11:32:00;;;;;;;;;;;;;;;21.53;71.76;100235.66;1688295;83;20498;-77
2022/09/10 11:34:52;;;;;;;;;;;;;;;21.43;71.40;100231.94;1685208;83;21370;-77
2022/09/10 11:37:41;;;;;;;;;;;;;;;21.35;71.20;100227.20;1688260;83;20190;-77
2022/09/10 11:40:13;;;;;;;;;;;;;;;21.49;70.96;100224.16;1642152;83;21709;-77
2022/09/10 11:42:40;;;;;;;;;;;;;;;21.51;70.62;100216.59;1648557;85;20153;-77
2022/09/10 11:45:27;;;;;;;;;;;;;;;21.49;70.42;100214.14;1688384;83;20478;-77
2022/09/10 11:48:00;;;;;;;;;;;;;;;21.55;70.19;100208.25;1688401;84;20612;-77
2022/09/10 11:50:30;;;;;;;;;;;;;;;21.43;69.94;100203.72;1686858;83;20214;-77
2022/09/10 11:52:59;;;;;;;;;;;;;;;21.32;69.77;100201.89;1687929;84;21980;-77
2022/09/10 11:55:31;;;;;;;;;;;;;;;21.40;69.80;100200.14;1688191;85;20198;-77
2022/09/10 11:58:03;;;;;;;;;;;;;;;21.46;69.62;100196.17;1687450;83;20221;-77
2022/09/10 12:00:29;;;;;;;;;;;;;;;21.52;69.31;100192.46;1688343;84;20571;-77
2022/09/10 12:03:19;;;;;;;;;;;;;;;21.52;69.04;100193.29;1688083;83;20190;-77
2022/09/10 12:06:05;;;;;;;;;;;;;;;21.63;68.88;100188.84;1687315;83;22407;-77
2022/09/10 12:08:54;;;;;;;;;;;;;;;21.75;68.62;100184.96;1666503;83;20226;-77
2022/09/10 12:11:50;;;;;;;;;;;;;;;21.80;68.30;100181.52;1660577;85;20189;-77
2022/09/10 12:14:20;;;;;;;;;;;;;;;21.68;68.02;100176.70;1664212;85;20545;-78
2022/09/10 12:16:55;;;;;;;;;;;;;;;21.55;67.88;100164.83;1681090;85;20253;-77
2022/09/10 12:19:30;;;;;;;;;;;;;;;21.47;67.74;100164.70;1687658;84;21738;-77
2022/09/10 12:22:02;;;;;;;;;;;;;;;21.48;67.59;100166.35;1687911;85;20194;-78
2022/09/10 12:24:30;;;;;;;;;;;;;;;21.42;67.44;100174.12;1688281;84;20438;-77
2022/09/10 12:26:58;;;;;;;;;;;;;;;21.43;67.30;100173.60;1680419;85;20645;-77
2022/09/10 12:29:39;;;;;;;;;;;;;;;21.43;67.15;100161.39;1684570;83;20175;-73
2022/09/10 12:32:20;;;;;;;;;;;;;;;21.50;67.05;100164.77;1683583;85;21607;-73
2022/09/10 12:34:48;;;;;;;;;;;;;;;21.51;66.73;100167.74;1684954;83;20210;-73
2022/09/10 12:37:23;;;;;;;;;;;;;;;21.49;66.53;100163.94;1687089;85;20445;-73
2022/09/10 12:40:09;;;;;;;;;;;;;;;21.56;66.40;100170.02;1684166;84;20484;-73
2022/09/10 12:42:35;;;;;;;;;;;;;;;21.60;66.12;100170.34;1686765;85;20225;-74
2022/09/10 12:45:01;;;;;;;;;;;;;;;21.50;65.92;100176.41;1686650;85;21649;-73
2022/09/10 12:47:32;;;;;;;;;;;;;;;21.53;65.77;100169.69;1687390;85;20264;-74
2022/09/10 12:49:59;;;;;;;;;;;;;;;21.59;65.62;100164.62;1686992;85;20606;-73